Time;durP1;ratioP1;P1;durP2;ratioP2;P2;SDS_P1;SDS_P2;PMS_P1;PMS_P2;Temp;Humidity;BMP_temperature;BMP_pressure;BME280_temperature;BME280_humidity;BME280_pressure;Samples;Min_cycle;Max_cycle;Signal;HPM_P1;HPM_P2
2021/12/11 00:00:33;;;;;;;10.97;2.60;;;11.50;99.90;;;;;;5005251;28;20280;-62
2021/12/11 00:03:18;;;;;;;11.07;2.00;;;11.50;99.90;;;;;;5034419;28;20315;-60
2021/12/11 00:05:55;;;;;;;13.93;2.77;;;11.50;99.90;;;;;;5005151;28;20185;-61
2021/12/11 00:08:28;;;;;;;11.27;2.20;;;11.30;99.90;;;;;;5006654;28;20215;-61
2021/12/11 00:11:05;;;;;;;17.13;2.87;;;11.30;99.90;;;;;;4998141;28;20204;-62
2021/12/11 00:13:38;;;;;;;9.50;2.20;;;11.30;99.90;;;;;;5004356;28;20290;-61
2021/12/11 00:16:08;;;;;;;11.73;2.37;;;11.30;99.90;;;;;;5009833;28;20234;-61
2021/12/11 00:18:36;;;;;;;8.63;2.10;;;11.30;99.90;;;;;;5010186;28;20201;-61
2021/12/11 00:21:14;;;;;;;11.03;2.20;;;11.20;99.90;;;;;;5001473;28;20876;-63
2021/12/11 00:23:51;;;;;;;10.20;2.03;;;11.20;99.90;;;;;;5005357;28;20207;-60
2021/12/11 00:26:36;;;;;;;10.30;2.13;;;11.20;99.90;;;;;;5003082;28;20859;-61
2021/12/11 00:29:06;;;;;;;8.70;2.23;;;11.20;99.90;;;;;;5004452;28;20269;-64
2021/12/11 00:31:35;;;;;;;12.30;2.13;;;11.10;99.90;;;;;;4999974;28;20549;-63
2021/12/11 00:34:03;;;;;;;13.13;2.07;;;11.00;99.90;;;;;;5005988;28;20327;-64
2021/12/11 00:36:34;;;;;;;9.30;2.50;;;11.00;99.90;;;;;;5006513;28;20208;-64
2021/12/11 00:39:11;;;;;;;11.33;2.53;;;11.00;99.90;;;;;;5006121;28;20189;-64
2021/12/11 00:41:40;;;;;;;8.33;2.20;;;11.00;99.90;;;;;;5002837;28;20266;-65
2021/12/11 00:44:08;;;;;;;10.43;2.40;;;11.10;99.90;;;;;;5002533;28;20239;-63
2021/12/11 00:46:34;;;;;;;12.13;2.30;;;11.00;99.90;;;;;;5006213;28;20250;-65
2021/12/11 00:49:13;;;;;;;10.73;2.73;;;11.00;99.90;;;;;;5002542;28;20195;-63
2021/12/11 00:51:40;;;;;;;7.43;2.20;;;10.90;99.90;;;;;;5006356;28;20207;-64
2021/12/11 00:54:07;;;;;;;10.33;2.13;;;10.90;99.90;;;;;;5010102;28;20638;-64
2021/12/11 00:56:39;;;;;;;12.63;2.50;;;10.80;99.90;;;;;;5012572;28;20728;-63
2021/12/11 00:59:12;;;;;;;9.67;2.17;;;10.80;99.90;;;;;;5007458;28;20199;-63
2021/12/11 01:01:47;;;;;;;10.73;2.47;;;10.80;99.90;;;;;;5009413;28;20299;-64
2021/12/11 01:04:28;;;;;;;5.30;2.00;;;10.70;99.90;;;;;;5009645;28;20184;-63
2021/12/11 01:07:02;;;;;;;10.23;2.57;;;10.70;99.90;;;;;;5008630;28;20188;-63
2021/12/11 01:09:41;;;;;;;8.33;2.23;;;10.70;99.90;;;;;;5009463;28;20288;-63
2021/12/11 01:13:05;;;;;;;11.03;2.30;;;10.70;99.90;;;;;;5007118;28;20196;-62
2021/12/11 01:15:54;;;;;;;7.97;2.37;;;10.70;99.90;;;;;;5005648;28;20558;-63
2021/12/11 01:18:34;;;;;;;11.53;3.10;;;10.70;99.90;;;;;;4989397;28;20626;-62
2021/12/11 01:21:43;;;;;;;9.50;2.53;;;10.70;99.90;;;;;;5033812;28;20316;-64
2021/12/11 01:26:39;;;;;;;9.00;2.23;;;10.80;99.90;;;;;;5008286;28;20302;-64
2021/12/11 01:29:07;;;;;;;11.23;2.43;;;10.80;99.90;;;;;;5009387;28;20196;-64
2021/12/11 01:31:35;;;;;;;11.77;2.73;;;10.90;99.90;;;;;;5008324;28;20216;-64
2021/12/11 01:34:02;;;;;;;9.07;2.47;;;11.00;99.90;;;;;;5013888;28;20194;-64
2021/12/11 01:36:31;;;;;;;12.33;2.90;;;11.00;99.90;;;;;;5006968;28;20307;-63
2021/12/11 01:39:04;;;;;;;13.40;3.67;;;11.00;99.90;;;;;;5009382;28;20185;-62
2021/12/11 01:41:30;;;;;;;7.97;3.27;;;11.10;99.90;;;;;;5007871;28;20242;-64
2021/12/11 01:44:06;;;;;;;14.80;3.20;;;11.10;99.90;;;;;;5009016;28;20190;-61
2021/12/11 01:46:32;;;;;;;15.87;2.90;;;11.20;99.90;;;;;;5024257;28;20187;-63
2021/12/11 01:49:06;;;;;;;14.90;2.63;;;11.30;99.90;;;;;;4993063;28;20181;-60
2021/12/11 01:51:47;;;;;;;13.67;3.53;;;11.30;99.90;;;;;;5019668;28;20188;-64
2021/12/11 01:54:21;;;;;;;17.10;3.20;;;11.40;99.90;;;;;;5008450;28;20621;-63
2021/12/11 01:56:58;;;;;;;8.70;3.07;;;11.40;99.90;;;;;;5036617;28;20666;-63
2021/12/11 01:59:34;;;;;;;12.53;3.77;;;11.40;99.90;;;;;;5008663;28;20279;-63
2021/12/11 02:02:15;;;;;;;18.53;3.40;;;11.30;99.90;;;;;;5011573;28;20304;-62
2021/12/11 02:04:50;;;;;;;14.80;3.70;;;11.20;99.90;;;;;;5002541;28;20195;-65
2021/12/11 02:07:30;;;;;;;9.03;3.07;;;11.10;99.90;;;;;;5006401;28;20184;-64
2021/12/11 02:10:00;;;;;;;13.23;3.27;;;11.00;99.90;;;;;;5003545;28;20291;-64
2021/12/11 02:12:38;;;;;;;18.50;4.40;;;10.90;99.90;;;;;;5037752;28;20189;-63
2021/12/11 02:15:15;;;;;;;19.23;4.27;;;10.90;99.90;;;;;;5008238;28;20189;-64
2021/12/11 02:18:12;;;;;;;11.33;3.33;;;10.80;99.90;;;;;;5008799;28;20271;-63
2021/12/11 02:20:51;;;;;;;9.83;3.47;;;10.70;99.90;;;;;;4997651;28;20189;-64
2021/12/11 02:23:18;;;;;;;9.83;3.33;;;10.70;99.90;;;;;;5007005;28;20266;-64
2021/12/11 02:25:49;;;;;;;11.40;3.03;;;10.70;99.90;;;;;;5008066;28;20193;-64
2021/12/11 02:28:34;;;;;;;15.97;2.87;;;10.70;99.90;;;;;;5006804;28;20657;-64
2021/12/11 02:31:28;;;;;;;11.73;3.10;;;10.70;99.90;;;;;;5007483;28;20191;-63
2021/12/11 02:34:12;;;;;;;10.00;3.13;;;10.70;99.90;;;;;;5007214;28;20185;-65
2021/12/11 02:37:15;;;;;;;6.10;2.83;;;10.70;99.90;;;;;;5001029;28;20568;-65
2021/12/11 02:39:56;;;;;;;10.63;3.27;;;10.70;99.90;;;;;;4997435;28;20840;-66
2021/12/11 02:42:34;;;;;;;11.67;3.00;;;10.70;99.90;;;;;;5004668;28;20269;-64
2021/12/11 02:45:05;;;;;;;9.70;2.77;;;10.60;99.90;;;;;;5007915;28;20258;-64
2021/12/11 02:47:42;;;;;;;12.87;2.97;;;10.60;99.90;;;;;;5006105;28;20193;-63
2021/12/11 02:50:27;;;;;;;8.40;2.83;;;10.60;99.90;;;;;;5005900;28;20271;-64
2021/12/11 02:53:25;;;;;;;8.70;2.47;;;10.60;99.90;;;;;;5002588;28;21028;-64
2021/12/11 02:56:09;;;;;;;10.23;3.03;;;10.50;99.90;;;;;;5006023;28;20519;-65
2021/12/11 02:58:43;;;;;;;9.37;2.67;;;10.50;99.90;;;;;;5002766;28;20193;-64
2021/12/11 03:01:27;;;;;;;7.70;2.43;;;10.40;99.90;;;;;;5006610;28;20901;-65
2021/12/11 03:04:10;;;;;;;10.20;3.13;;;10.40;99.90;;;;;;5007516;28;20258;-64
2021/12/11 03:06:42;;;;;;;16.27;2.97;;;10.40;99.90;;;;;;5005997;28;20488;-64
2021/12/11 03:09:12;;;;;;;9.90;2.73;;;10.40;99.90;;;;;;5007685;28;20943;-64
2021/12/11 03:11:39;;;;;;;12.30;2.90;;;10.30;99.90;;;;;;5006519;28;20196;-64
2021/12/11 03:14:12;;;;;;;15.80;2.77;;;10.30;99.90;;;;;;5006971;28;20187;-64
2021/12/11 03:16:40;;;;;;;6.27;2.60;;;10.30;99.90;;;;;;5005892;28;20654;-63
2021/12/11 03:19:10;;;;;;;15.80;3.00;;;10.20;99.90;;;;;;5005739;28;20718;-65
2021/12/11 03:21:38;;;;;;;10.53;3.00;;;10.20;99.90;;;;;;5005108;28;20272;-63
2021/12/11 03:24:07;;;;;;;14.60;3.00;;;10.20;99.90;;;;;;5006885;28;20319;-64
2021/12/11 03:26:35;;;;;;;11.63;3.07;;;10.20;99.90;;;;;;5005968;28;20622;-62
2021/12/11 03:29:03;;;;;;;9.83;2.90;;;10.30;99.90;;;;;;5022189;28;20185;-62
2021/12/11 03:31:30;;;;;;;9.93;3.10;;;10.20;99.90;;;;;;5021698;28;20184;-63
2021/12/11 03:33:59;;;;;;;11.00;2.90;;;10.20;99.90;;;;;;5007087;28;20185;-64
2021/12/11 03:36:30;;;;;;;16.93;3.20;;;10.20;99.90;;;;;;5005376;28;20200;-62
2021/12/11 03:39:03;;;;;;;11.20;3.13;;;10.20;99.90;;;;;;5007346;28;20192;-64
2021/12/11 03:41:29;;;;;;;16.83;4.03;;;10.20;99.90;;;;;;5005227;28;20909;-63
2021/12/11 03:43:56;;;;;;;12.63;3.27;;;10.20;99.90;;;;;;5007244;28;20181;-63
2021/12/11 03:46:23;;;;;;;15.10;3.17;;;10.20;99.90;;;;;;5006678;28;20196;-63
2021/12/11 03:49:07;;;;;;;15.40;3.47;;;10.20;99.90;;;;;;4999538;28;20257;-62
2021/12/11 03:51:41;;;;;;;14.40;3.63;;;10.20;99.90;;;;;;5004286;28;20526;-62
2021/12/11 03:54:15;;;;;;;15.57;4.03;;;10.30;99.90;;;;;;5021035;28;20212;-63
2021/12/11 03:56:42;;;;;;;15.50;3.30;;;10.30;99.90;;;;;;5015876;28;20185;-63
2021/12/11 03:59:13;;;;;;;13.77;3.67;;;10.20;99.90;;;;;;5021273;28;20765;-62
2021/12/11 04:01:51;;;;;;;15.90;3.33;;;10.20;99.90;;;;;;5005923;28;20666;-65
2021/12/11 04:04:29;;;;;;;22.97;3.47;;;10.30;99.90;;;;;;5006465;28;20211;-63
2021/12/11 04:06:58;;;;;;;12.33;3.67;;;10.30;99.90;;;;;;5002083;28;20825;-64
2021/12/11 04:09:27;;;;;;;15.73;3.37;;;10.30;99.90;;;;;;5000120;28;20241;-64
2021/12/11 04:11:56;;;;;;;18.10;3.07;;;10.30;99.90;;;;;;5005739;28;20566;-64
2021/12/11 04:14:30;;;;;;;17.67;3.93;;;10.30;99.90;;;;;;5006737;28;20192;-63
2021/12/11 04:16:58;;;;;;;13.57;3.53;;;10.30;99.90;;;;;;5004147;28;20278;-65
2021/12/11 04:19:25;;;;;;;16.43;4.50;;;10.30;99.90;;;;;;5003651;28;20203;-63
2021/12/11 04:21:54;;;;;;;15.87;3.63;;;10.30;99.90;;;;;;5004920;28;20220;-64
2021/12/11 04:24:26;;;;;;;17.83;3.60;;;10.30;99.90;;;;;;5006696;28;20189;-65
2021/12/11 04:26:57;;;;;;;16.20;3.40;;;10.30;99.90;;;;;;5008949;28;20291;-64
2021/12/11 04:29:25;;;;;;;17.10;3.57;;;10.30;99.90;;;;;;5008057;28;20192;-64
2021/12/11 04:31:53;;;;;;;14.47;3.00;;;10.30;99.90;;;;;;5039343;28;20184;-63
2021/12/11 04:34:22;;;;;;;14.43;2.90;;;10.30;99.90;;;;;;5008091;28;20626;-62
2021/12/11 04:37:03;;;;;;;11.93;3.63;;;10.30;99.90;;;;;;5007457;28;20216;-63
2021/12/11 04:39:35;;;;;;;14.13;3.57;;;10.30;99.90;;;;;;5010377;28;20196;-61
2021/12/11 04:42:14;;;;;;;13.70;3.93;;;10.30;99.90;;;;;;5007628;28;20213;-62
2021/12/11 04:44:45;;;;;;;23.50;4.37;;;10.30;99.90;;;;;;5004855;28;20184;-62
2021/12/11 04:47:38;;;;;;;15.40;3.33;;;10.30;99.90;;;;;;5009484;28;20324;-62
2021/12/11 04:50:21;;;;;;;16.07;3.43;;;10.30;99.90;;;;;;5008712;28;20970;-63
2021/12/11 04:52:55;;;;;;;25.20;4.03;;;10.30;99.90;;;;;;5008562;28;20189;-63
2021/12/11 04:55:50;;;;;;;11.37;3.37;;;10.20;99.90;;;;;;5009996;28;20185;-63
2021/12/11 05:02:03;;;;;;;19.70;3.60;;;10.30;99.90;;;;;;5015600;28;20679;-63
2021/12/11 05:04:57;;;;;;;17.07;3.63;;;10.30;99.90;;;;;;5006534;28;20267;-64
2021/12/11 05:09:45;;;;;;;16.37;3.53;;;10.30;99.90;;;;;;5009703;28;20224;-63
2021/12/11 05:14:45;;;;;;;13.60;3.37;;;10.30;99.90;;;;;;5009293;28;20254;-63
2021/12/11 05:17:14;;;;;;;19.47;4.20;;;10.40;99.90;;;;;;5004409;28;20871;-62
2021/12/11 05:19:42;;;;;;;12.23;3.77;;;10.40;99.90;;;;;;5007362;28;20192;-62
2021/12/11 05:22:11;;;;;;;15.30;3.70;;;10.40;99.90;;;;;;5008298;28;20213;-62
2021/12/11 05:24:43;;;;;;;20.97;4.07;;;10.50;99.90;;;;;;5009231;28;20197;-63
2021/12/11 05:27:10;;;;;;;24.47;4.20;;;10.50;99.90;;;;;;5008478;28;20213;-63
2021/12/11 05:29:36;;;;;;;19.00;3.90;;;10.50;99.90;;;;;;5006621;28;20188;-63
2021/12/11 05:32:07;;;;;;;15.10;4.07;;;10.50;99.90;;;;;;5039235;28;20193;-62
2021/12/11 05:34:33;;;;;;;18.70;3.93;;;10.60;99.90;;;;;;5008182;28;20188;-63
2021/12/11 05:37:01;;;;;;;27.83;4.43;;;10.60;99.90;;;;;;5007882;28;20209;-62
2021/12/11 05:39:29;;;;;;;13.57;3.43;;;10.60;99.90;;;;;;5008305;28;20211;-62
2021/12/11 05:41:56;;;;;;;15.13;4.37;;;10.60;99.90;;;;;;4998646;28;20227;-63
2021/12/11 05:44:23;;;;;;;23.00;4.63;;;10.60;99.90;;;;;;5000962;28;20184;-63
2021/12/11 05:46:51;;;;;;;16.97;4.13;;;10.60;99.90;;;;;;5012821;28;20197;-63
2021/12/11 05:49:19;;;;;;;13.00;3.50;;;10.60;99.90;;;;;;5010518;28;20193;-62
2021/12/11 05:51:50;;;;;;;15.90;3.87;;;10.60;99.90;;;;;;5006888;28;20845;-63
2021/12/11 05:54:23;;;;;;;16.40;3.57;;;10.70;99.90;;;;;;5007772;28;20203;-61
2021/12/11 05:56:55;;;;;;;21.17;3.93;;;10.70;99.90;;;;;;5005515;28;20188;-63
2021/12/11 05:59:22;;;;;;;17.27;3.60;;;10.70;99.90;;;;;;5008580;28;20189;-62
2021/12/11 06:02:04;;;;;;;20.00;3.60;;;10.70;99.90;;;;;;5004276;28;20197;-64
2021/12/11 06:04:34;;;;;;;25.60;3.60;;;10.70;99.90;;;;;;5005940;28;20323;-62
2021/12/11 06:07:06;;;;;;;18.83;3.13;;;10.80;99.90;;;;;;5008146;28;20253;-63
2021/12/11 06:09:34;;;;;;;16.17;3.10;;;10.80;99.90;;;;;;5007401;28;20200;-63
2021/12/11 06:12:08;;;;;;;18.57;4.10;;;10.90;99.90;;;;;;5007903;28;20255;-63
2021/12/11 06:14:35;;;;;;;15.83;3.60;;;10.90;99.90;;;;;;4995861;28;20193;-63
2021/12/11 06:17:06;;;;;;;10.73;3.23;;;11.00;99.90;;;;;;5008803;28;20598;-63
2021/12/11 06:19:34;;;;;;;17.53;4.10;;;11.00;99.90;;;;;;5007431;28;20196;-64
2021/12/11 06:22:00;;;;;;;14.50;3.93;;;11.10;99.90;;;;;;5006730;28;20224;-62
2021/12/11 06:24:29;;;;;;;20.77;4.70;;;11.10;99.90;;;;;;5003454;28;20204;-66
2021/12/11 06:26:58;;;;;;;14.57;3.93;;;11.20;99.90;;;;;;5004435;28;20233;-67
2021/12/11 06:29:25;;;;;;;17.87;4.37;;;11.20;99.90;;;;;;5006096;28;20908;-64
2021/12/11 06:31:53;;;;;;;22.10;4.00;;;11.30;99.90;;;;;;5006347;28;20320;-64
2021/12/11 06:34:20;;;;;;;17.90;4.00;;;11.30;99.90;;;;;;5003831;28;20227;-66
2021/12/11 06:36:47;;;;;;;22.93;4.67;;;11.40;99.90;;;;;;5006784;28;20201;-64
2021/12/11 06:39:19;;;;;;;14.37;3.53;;;11.50;99.90;;;;;;5004530;28;20197;-62
2021/12/11 06:41:51;;;;;;;26.63;4.03;;;11.50;99.90;;;;;;5005934;28;20193;-66
2021/12/11 06:44:20;;;;;;;23.37;4.23;;;11.60;99.90;;;;;;5003883;28;20204;-65
2021/12/11 06:46:53;;;;;;;14.30;4.13;;;11.60;99.90;;;;;;5008410;28;20312;-65
2021/12/11 06:49:21;;;;;;;16.73;3.67;;;11.70;99.90;;;;;;5025080;28;20201;-63
2021/12/11 06:51:47;;;;;;;16.60;4.23;;;11.70;99.90;;;;;;5016029;28;20303;-65
2021/12/11 06:54:14;;;;;;;18.57;4.57;;;11.80;99.90;;;;;;5030469;28;20325;-62
2021/12/11 06:56:41;;;;;;;26.83;4.47;;;11.90;99.90;;;;;;5012857;28;20246;-61
2021/12/11 06:59:10;;;;;;;17.10;4.10;;;12.00;99.90;;;;;;5008631;28;20196;-63
2021/12/11 07:01:38;;;;;;;25.30;4.80;;;12.00;99.90;;;;;;5007251;28;20189;-62
2021/12/11 07:04:07;;;;;;;15.47;4.87;;;12.10;99.90;;;;;;5006592;28;20338;-62
2021/12/11 07:06:39;;;;;;;16.70;4.83;;;12.10;99.90;;;;;;5020390;28;20706;-62
2021/12/11 07:09:12;;;;;;;16.53;4.37;;;12.20;99.90;;;;;;5006661;28;20372;-64
2021/12/11 07:11:42;;;;;;;19.97;4.37;;;12.20;99.90;;;;;;5000054;28;20193;-64
2021/12/11 07:14:11;;;;;;;18.93;4.17;;;12.30;99.90;;;;;;5009167;28;20203;-65
2021/12/11 07:16:38;;;;;;;21.97;5.57;;;12.30;99.90;;;;;;5020710;28;20288;-64
2021/12/11 07:19:07;;;;;;;20.17;4.30;;;12.40;99.90;;;;;;5002963;28;20276;-62
2021/12/11 07:21:35;;;;;;;16.70;4.07;;;12.40;99.90;;;;;;5005059;28;21968;-62
2021/12/11 07:24:06;;;;;;;18.93;4.50;;;12.40;99.90;;;;;;5006109;28;20196;-62
2021/12/11 07:26:34;;;;;;;26.17;4.77;;;12.60;99.90;;;;;;5005028;28;20220;-61
2021/12/11 07:29:17;;;;;;;17.00;4.10;;;12.60;99.90;;;;;;4999863;28;20315;-66
2021/12/11 07:31:48;;;;;;;13.53;3.90;;;12.70;99.90;;;;;;5002758;28;20203;-64
2021/12/11 07:34:17;;;;;;;14.00;3.87;;;12.70;99.90;;;;;;5020680;28;20262;-62
2021/12/11 07:36:45;;;;;;;18.57;3.83;;;12.70;99.90;;;;;;5000937;28;20259;-64
2021/12/11 07:39:15;;;;;;;18.47;3.93;;;12.70;99.90;;;;;;5005902;28;20227;-63
2021/12/11 07:41:42;;;;;;;14.53;3.73;;;12.80;99.90;;;;;;5005596;28;20292;-65
2021/12/11 07:44:09;;;;;;;14.83;4.07;;;12.70;99.90;;;;;;5006283;28;20181;-64
2021/12/11 07:46:36;;;;;;;11.77;3.20;;;12.70;99.90;;;;;;5002948;28;20626;-65
2021/12/11 07:49:04;;;;;;;20.37;4.40;;;12.80;99.90;;;;;;5004779;28;20275;-63
2021/12/11 07:51:33;;;;;;;23.77;4.47;;;12.80;99.90;;;;;;5008282;28;20307;-66
2021/12/11 07:54:00;;;;;;;17.33;4.20;;;12.80;99.90;;;;;;5009907;28;20219;-66
2021/12/11 07:56:27;;;;;;;18.53;4.07;;;12.80;99.90;;;;;;5009376;28;20201;-65
2021/12/11 07:58:59;;;;;;;18.63;4.60;;;12.80;99.90;;;;;;5005956;28;20189;-63
2021/12/11 08:01:33;;;;;;;19.47;3.97;;;12.90;99.90;;;;;;5002736;28;20250;-60
2021/12/11 08:04:01;;;;;;;12.87;4.20;;;12.90;99.90;;;;;;5021052;28;20219;-61
2021/12/11 08:06:30;;;;;;;13.70;3.80;;;12.90;99.90;;;;;;5018801;28;20197;-62
2021/12/11 08:08:58;;;;;;;13.03;3.73;;;12.90;99.90;;;;;;5004727;28;20227;-63
2021/12/11 08:11:28;;;;;;;18.50;3.60;;;13.00;99.90;;;;;;5004037;28;20959;-60
2021/12/11 08:13:57;;;;;;;12.00;3.33;;;13.00;99.90;;;;;;5005816;28;20220;-62
2021/12/11 08:16:35;;;;;;;18.30;3.80;;;13.10;99.90;;;;;;5003696;28;20197;-63
2021/12/11 08:19:04;;;;;;;18.27;3.63;;;13.10;99.90;;;;;;5002848;28;20287;-64
2021/12/11 08:21:31;;;;;;;17.17;3.83;;;13.20;99.90;;;;;;5001749;28;20711;-63
2021/12/11 08:24:04;;;;;;;23.00;3.83;;;13.20;99.90;;;;;;5005262;28;20718;-63
2021/12/11 08:26:31;;;;;;;21.83;4.10;;;13.30;99.90;;;;;;5001887;28;20231;-63
2021/12/11 08:28:58;;;;;;;17.27;4.80;;;13.30;99.90;;;;;;5004069;28;20189;-63
2021/12/11 08:31:25;;;;;;;16.33;3.70;;;13.40;99.90;;;;;;5010138;28;20892;-63
2021/12/11 08:33:53;;;;;;;16.30;4.37;;;13.40;99.90;;;;;;5004247;28;20796;-63
2021/12/11 08:36:23;;;;;;;21.50;4.00;;;13.40;99.90;;;;;;4999971;28;20705;-65
2021/12/11 08:38:50;;;;;;;14.93;4.57;;;13.50;99.90;;;;;;5000470;28;20201;-61
2021/12/11 08:41:24;;;;;;;21.90;3.93;;;13.50;99.90;;;;;;5004591;28;20193;-63
2021/12/11 08:43:59;;;;;;;22.50;4.10;;;13.50;99.90;;;;;;5004991;28;20318;-61
2021/12/11 08:46:30;;;;;;;21.07;3.70;;;13.60;99.90;;;;;;5001634;28;20219;-61
2021/12/11 08:49:10;;;;;;;22.70;4.03;;;13.60;99.90;;;;;;5003987;28;20213;-61
2021/12/11 08:52:08;;;;;;;20.50;3.60;;;13.70;99.90;;;;;;5031288;28;20207;-61
2021/12/11 08:54:38;;;;;;;21.37;3.70;;;13.80;99.90;;;;;;5005002;28;20192;-63
2021/12/11 08:57:10;;;;;;;19.33;3.70;;;13.80;99.90;;;;;;5004553;28;20185;-65
2021/12/11 08:59:43;;;;;;;13.40;4.17;;;13.90;99.90;;;;;;5004284;28;20197;-66
2021/12/11 09:02:33;;;;;;;15.87;3.50;;;13.90;99.90;;;;;;5002604;28;20217;-64
2021/12/11 09:05:14;;;;;;;22.23;4.60;;;14.00;99.90;;;;;;4978610;28;20201;-61
2021/12/11 09:07:52;;;;;;;17.93;4.20;;;14.10;99.90;;;;;;5004958;28;20196;-66
2021/12/11 09:10:46;;;;;;;14.07;3.13;;;14.10;99.90;;;;;;4997694;28;20192;-66
2021/12/11 09:13:32;;;;;;;25.97;3.57;;;14.20;99.90;;;;;;5004171;28;20215;-65
2021/12/11 09:16:11;;;;;;;19.67;4.23;;;14.30;99.90;;;;;;5003179;28;20184;-64
2021/12/11 09:18:49;;;;;;;15.77;3.40;;;14.40;99.90;;;;;;5006318;28;20196;-65
2021/12/11 09:21:51;;;;;;;13.13;3.63;;;14.50;99.90;;;;;;5002242;28;21012;-65
2021/12/11 09:24:38;;;;;;;19.83;3.70;;;14.60;99.90;;;;;;5002131;28;20204;-66
2021/12/11 09:27:18;;;;;;;15.50;3.60;;;14.80;99.90;;;;;;5003095;28;20219;-66
2021/12/11 09:29:58;;;;;;;23.57;3.87;;;14.80;99.90;;;;;;5001303;28;20197;-63
2021/12/11 09:32:58;;;;;;;21.53;4.47;;;14.90;99.90;;;;;;5005459;28;20196;-65
2021/12/11 09:35:32;;;;;;;24.20;3.93;;;14.90;99.90;;;;;;5000699;28;20232;-65
2021/12/11 09:38:14;;;;;;;23.73;3.37;;;15.00;99.90;;;;;;5004711;28;20224;-65
2021/12/11 09:40:55;;;;;;;22.53;3.70;;;15.00;99.90;;;;;;5002896;28;20208;-68
2021/12/11 09:44:02;;;;;;;19.73;4.93;;;15.00;99.90;;;;;;5019069;28;20212;-66
2021/12/11 09:46:36;;;;;;;14.97;4.87;;;15.20;99.90;;;;;;5015657;28;20192;-66
2021/12/11 09:49:06;;;;;;;23.90;4.67;;;15.30;99.90;;;;;;5033844;28;20193;-66
2021/12/11 09:51:37;;;;;;;30.03;4.80;;;15.40;99.90;;;;;;5001704;28;20224;-66
2021/12/11 09:54:17;;;;;;;20.00;4.07;;;15.50;99.90;;;;;;5007246;28;20189;-65
2021/12/11 09:56:52;;;;;;;20.80;4.30;;;15.50;99.90;;;;;;5004385;28;20279;-64
2021/12/11 09:59:22;;;;;;;18.33;4.10;;;15.50;99.90;;;;;;5005528;28;20397;-65
2021/12/11 10:01:56;;;;;;;22.00;4.40;;;15.60;99.90;;;;;;5035296;28;20324;-66
2021/12/11 10:04:51;;;;;;;22.47;4.37;;;15.60;99.90;;;;;;5000599;28;20819;-66
2021/12/11 10:09:57;;;;;;;18.83;4.67;;;15.90;99.90;;;;;;5003376;28;20203;-66
2021/12/11 10:12:30;;;;;;;14.60;4.47;;;15.90;99.90;;;;;;4998852;28;20197;-65
2021/12/11 10:15:08;;;;;;;22.80;5.17;;;15.90;99.90;;;;;;5003827;28;20731;-64
2021/12/11 10:17:42;;;;;;;15.43;4.77;;;16.00;99.90;;;;;;5016157;28;20934;-64
2021/12/11 10:20:32;;;;;;;16.53;4.03;;;16.10;99.90;;;;;;5005415;28;20258;-65
2021/12/11 10:23:03;;;;;;;17.53;4.27;;;16.20;99.90;;;;;;5006141;28;20212;-65
2021/12/11 10:25:35;;;;;;;16.63;4.23;;;16.30;99.90;;;;;;5022516;28;20950;-65
2021/12/11 10:28:11;;;;;;;19.43;4.83;;;16.40;99.90;;;;;;5007004;28;20249;-66
2021/12/11 10:30:47;;;;;;;18.07;3.80;;;16.60;99.90;;;;;;5002811;28;20665;-65
2021/12/11 10:33:18;;;;;;;26.37;4.43;;;16.70;99.90;;;;;;5006924;28;20576;-66
2021/12/11 10:35:50;;;;;;;13.13;4.30;;;17.00;99.90;;;;;;5007522;28;20200;-65
2021/12/11 10:38:18;;;;;;;13.43;3.80;;;18.50;99.90;;;;;;5007434;28;20258;-65
2021/12/11 10:40:51;;;;;;;13.00;4.43;;;20.90;99.90;;;;;;4989820;28;20312;-65
2021/12/11 10:43:28;;;;;;;22.87;4.10;;;21.70;99.90;;;;;;5007476;28;20259;-66
2021/12/11 10:45:57;;;;;;;12.87;4.17;;;20.40;99.90;;;;;;5007639;28;20411;-63
2021/12/11 10:48:28;;;;;;;12.67;4.20;;;19.50;99.90;;;;;;5007566;28;20193;-62
2021/12/11 10:51:09;;;;;;;14.90;4.70;;;19.40;99.90;;;;;;5006571;28;20200;-64
2021/12/11 10:53:38;;;;;;;16.67;4.60;;;19.10;99.90;;;;;;5005552;28;20203;-65
2021/12/11 10:56:07;;;;;;;17.40;4.53;;;18.80;99.90;;;;;;5010482;28;20200;-64
2021/12/11 10:58:42;;;;;;;19.43;4.90;;;18.70;99.90;;;;;;5007360;28;20196;-62
2021/12/11 11:01:28;;;;;;;24.30;5.00;;;18.70;99.90;;;;;;5019117;28;20765;-62
2021/12/11 11:04:02;;;;;;;25.93;4.40;;;18.80;99.90;;;;;;5006100;28;20213;-66
2021/12/11 11:06:29;;;;;;;16.53;4.77;;;18.80;99.90;;;;;;5006960;28;20255;-64
2021/12/11 11:08:57;;;;;;;22.93;4.60;;;18.70;99.90;;;;;;5006660;28;20256;-65
2021/12/11 11:11:28;;;;;;;16.87;4.40;;;18.60;99.90;;;;;;5006793;28;20224;-66
2021/12/11 11:13:56;;;;;;;15.77;4.13;;;18.50;99.90;;;;;;5004973;28;20197;-66
2021/12/11 11:16:24;;;;;;;29.93;5.27;;;18.30;99.90;;;;;;5006494;28;20602;-64
2021/12/11 11:18:51;;;;;;;20.17;4.13;;;18.20;99.90;;;;;;5007086;28;20724;-65
2021/12/11 11:21:32;;;;;;;17.43;4.30;;;18.10;99.90;;;;;;4996803;28;20184;-63
2021/12/11 11:24:00;;;;;;;13.83;4.20;;;18.10;99.90;;;;;;5006693;28;20224;-65
2021/12/11 11:26:32;;;;;;;13.50;4.50;;;18.10;99.90;;;;;;5005224;28;20239;-65
2021/12/11 11:29:00;;;;;;;16.07;4.40;;;18.10;99.90;;;;;;5006857;28;20189;-65
2021/12/11 11:31:34;;;;;;;17.63;4.73;;;18.10;99.90;;;;;;5006601;28;20203;-66
2021/12/11 11:34:03;;;;;;;11.97;3.90;;;18.00;99.90;;;;;;5004663;28;20213;-65
2021/12/11 11:36:31;;;;;;;18.43;4.60;;;18.00;99.90;;;;;;5003789;28;20255;-64
2021/12/11 11:39:03;;;;;;;13.77;4.03;;;18.00;99.90;;;;;;5035668;28;20197;-65
2021/12/11 11:41:35;;;;;;;15.40;4.53;;;18.00;99.90;;;;;;5005990;28;20197;-64
2021/12/11 11:44:03;;;;;;;33.07;4.83;;;17.90;99.90;;;;;;5005788;28;20329;-65
2021/12/11 11:46:30;;;;;;;21.70;4.70;;;17.90;99.90;;;;;;5004634;28;20196;-65
2021/12/11 11:49:01;;;;;;;20.90;4.37;;;17.90;99.90;;;;;;5006791;28;20235;-65
2021/12/11 11:51:40;;;;;;;18.73;4.57;;;18.00;99.90;;;;;;5004161;28;20319;-64
2021/12/11 11:54:10;;;;;;;18.43;4.40;;;18.00;99.90;;;;;;5006198;28;20270;-65
2021/12/11 11:56:45;;;;;;;27.27;4.63;;;18.00;99.90;;;;;;5005508;28;20279;-64
2021/12/11 11:59:13;;;;;;;16.13;3.80;;;18.00;99.90;;;;;;5004611;28;20276;-64
2021/12/11 12:02:00;;;;;;;15.97;4.00;;;17.90;99.90;;;;;;5005062;28;20246;-66
2021/12/11 12:04:30;;;;;;;20.60;4.30;;;18.00;99.90;;;;;;5002611;28;20187;-65
2021/12/11 12:07:00;;;;;;;14.90;4.23;;;17.90;99.90;;;;;;5006317;28;20192;-65
2021/12/11 12:09:35;;;;;;;19.60;4.20;;;17.90;99.90;;;;;;5005824;28;20192;-65
2021/12/11 12:12:03;;;;;;;24.93;5.90;;;17.90;99.90;;;;;;5005991;28;20195;-66
2021/12/11 12:14:34;;;;;;;21.17;7.10;;;17.80;99.90;;;;;;4987158;28;21061;-66
2021/12/11 12:17:02;;;;;;;23.10;4.40;;;17.80;99.90;;;;;;5005536;28;20197;-66
2021/12/11 12:19:29;;;;;;;12.63;4.33;;;17.80;99.90;;;;;;5021285;28;20196;-66
2021/12/11 12:22:03;;;;;;;19.30;4.63;;;17.90;99.90;;;;;;5002307;28;20271;-66
2021/12/11 12:24:33;;;;;;;16.80;4.77;;;17.90;99.90;;;;;;5004609;28;20192;-65
2021/12/11 12:27:05;;;;;;;20.17;4.57;;;17.80;99.90;;;;;;5037611;28;20211;-64
2021/12/11 12:29:34;;;;;;;17.73;4.33;;;17.80;99.90;;;;;;5006502;28;20212;-65
2021/12/11 12:32:09;;;;;;;20.77;4.87;;;17.70;99.90;;;;;;5003202;28;20197;-65
2021/12/11 12:34:36;;;;;;;24.80;5.20;;;17.70;99.90;;;;;;5005087;28;20279;-65
2021/12/11 12:37:03;;;;;;;23.30;4.77;;;17.70;99.90;;;;;;5004465;28;20255;-65
2021/12/11 12:39:39;;;;;;;24.00;4.67;;;17.80;99.90;;;;;;5004533;28;20189;-65
2021/12/11 12:42:31;;;;;;;18.37;4.33;;;17.80;99.90;;;;;;5004372;28;20203;-66
2021/12/11 12:45:15;;;;;;;17.03;4.83;;;17.60;99.90;;;;;;4996989;28;20212;-65
2021/12/11 12:47:55;;;;;;;17.50;4.70;;;17.60;99.90;;;;;;5009664;28;20216;-65
2021/12/11 12:50:30;;;;;;;23.90;5.13;;;17.50;99.90;;;;;;5009768;28;20276;-66
2021/12/11 12:52:57;;;;;;;21.87;4.93;;;17.40;99.90;;;;;;5009746;28;20184;-64
2021/12/11 12:55:38;;;;;;;16.57;4.53;;;17.50;99.90;;;;;;5007358;28;20185;-66
2021/12/11 12:58:12;;;;;;;18.57;4.40;;;17.40;99.90;;;;;;5010320;28;20220;-65
2021/12/11 13:00:56;;;;;;;16.87;4.30;;;17.50;99.90;;;;;;4997621;28;20491;-66
2021/12/11 13:03:27;;;;;;;23.47;5.13;;;17.50;99.90;;;;;;5008502;28;20274;-65
2021/12/11 13:06:09;;;;;;;14.37;4.87;;;17.50;99.90;;;;;;5009957;28;20188;-66
2021/12/11 13:09:11;;;;;;;14.60;4.10;;;17.40;99.90;;;;;;5004839;28;20192;-65
2021/12/11 13:11:53;;;;;;;16.00;5.10;;;17.40;99.90;;;;;;5008838;28;20308;-66
2021/12/11 13:14:21;;;;;;;16.60;4.37;;;17.40;99.90;;;;;;5008869;28;20885;-64
2021/12/11 13:16:55;;;;;;;27.47;5.70;;;17.30;99.90;;;;;;5009610;28;20200;-64
2021/12/11 13:19:40;;;;;;;18.10;4.80;;;17.30;99.90;;;;;;5008589;28;20210;-65
2021/12/11 13:22:18;;;;;;;14.30;4.57;;;17.30;99.90;;;;;;5008178;28;20305;-65
2021/12/11 13:24:56;;;;;;;19.47;5.10;;;17.20;99.90;;;;;;5008142;28;20231;-64